Time;durP1;ratioP1;P1;durP2;ratioP2;P2;SDS_P1;SDS_P2;PMS_P1;PMS_P2;Temp;Humidity;BMP_temperature;BMP_pressure;BME280_temperature;BME280_humidity;BME280_pressure;Samples;Min_cycle;Max_cycle;Signal;HPM_P1;HPM_P2
2023/02/01 00:02:11;;;;;;;13.90;5.33;;;;;;;;;;5029641;28;20178;-84
2023/02/01 00:04:37;;;;;;;12.03;5.73;;;;;;;;;;5025904;28;20186;-85
2023/02/01 00:07:04;;;;;;;11.40;5.50;;;;;;;;;;5027615;28;20649;-83
2023/02/01 00:09:30;;;;;;;9.80;5.53;;;;;;;;;;5028290;28;20228;-85
2023/02/01 00:11:59;;;;;;;12.80;6.63;;;;;;;;;;5028869;28;20197;-83
2023/02/01 00:14:25;;;;;;;11.77;5.37;;;;;;;;;;5022820;28;20886;-84
2023/02/01 00:16:51;;;;;;;6.43;5.00;;;;;;;;;;5038999;28;20248;-84
2023/02/01 00:19:17;;;;;;;11.03;5.90;;;;;;;;;;5034788;28;20606;-83
2023/02/01 00:21:44;;;;;;;11.73;5.93;;;;;;;;;;5028030;28;20190;-86
2023/02/01 00:24:11;;;;;;;11.20;5.30;;;;;;;;;;5044740;28;20178;-83
2023/02/01 00:26:38;;;;;;;7.93;5.30;;;;;;;;;;5022271;28;20181;-83
2023/02/01 00:29:07;;;;;;;7.80;5.30;;;;;;;;;;5027692;28;20296;-85
2023/02/01 00:31:33;;;;;;;7.47;4.63;;;;;;;;;;5023944;28;20189;-85
2023/02/01 00:33:59;;;;;;;9.90;5.50;;;;;;;;;;5037283;28;20178;-83
2023/02/01 00:36:25;;;;;;;8.60;5.07;;;;;;;;;;5024677;28;20174;-84
2023/02/01 00:38:51;;;;;;;9.53;5.27;;;;;;;;;;5025592;28;20182;-83
2023/02/01 00:41:18;;;;;;;8.37;4.90;;;;;;;;;;5019870;28;20198;-83
2023/02/01 00:43:44;;;;;;;6.87;4.80;;;;;;;;;;5019238;28;20273;-83
2023/02/01 00:46:11;;;;;;;12.63;5.00;;;;;;;;;;5025139;28;20659;-84
2023/02/01 00:48:38;;;;;;;10.50;5.30;;;;;;;;;;5042050;28;20610;-84
2023/02/01 00:51:05;;;;;;;11.63;5.83;;;;;;;;;;5030976;28;20183;-84
2023/02/01 00:53:31;;;;;;;11.53;5.97;;;;;;;;;;5024487;28;20197;-85
2023/02/01 00:55:57;;;;;;;10.20;6.13;;;;;;;;;;5029898;28;20722;-84
2023/02/01 00:58:25;;;;;;;9.47;5.83;;;;;;;;;;5026045;28;20177;-85
2023/02/01 01:01:00;;;;;;;10.00;6.33;;;;;;;;;;5029148;28;20177;-84
2023/02/01 01:03:26;;;;;;;10.50;6.23;;;;;;;;;;5037788;28;20180;-83
2023/02/01 01:05:57;;;;;;;8.87;5.60;;;;;;;;;;5025694;28;20304;-84
2023/02/01 01:08:23;;;;;;;15.53;7.10;;;;;;;;;;5022996;28;20255;-84
2023/02/01 01:10:49;;;;;;;7.93;6.10;;;;;;;;;;5021452;28;20208;-86
2023/02/01 01:13:15;;;;;;;13.13;6.20;;;;;;;;;;5042641;28;20309;-83
2023/02/01 01:15:41;;;;;;;20.00;6.13;;;;;;;;;;5025390;28;20178;-85
2023/02/01 01:18:08;;;;;;;16.10;7.53;;;;;;;;;;5042505;28;20214;-83
2023/02/01 01:20:38;;;;;;;14.17;6.63;;;;;;;;;;5029202;28;20182;-84
2023/02/01 01:23:05;;;;;;;14.33;6.73;;;;;;;;;;5034655;28;20189;-83
2023/02/01 01:25:31;;;;;;;13.20;6.50;;;;;;;;;;5018397;28;20190;-85
2023/02/01 01:27:57;;;;;;;11.90;6.33;;;;;;;;;;5021070;28;20205;-84
2023/02/01 01:30:23;;;;;;;12.47;6.73;;;;;;;;;;5033494;28;20197;-85
2023/02/01 01:32:49;;;;;;;10.30;5.60;;;;;;;;;;5030815;28;20209;-84
2023/02/01 01:35:16;;;;;;;10.93;6.00;;;;;;;;;;5035403;28;20170;-87
2023/02/01 01:37:42;;;;;;;10.70;5.77;;;;;;;;;;5026005;28;20182;-83
2023/02/01 01:40:10;;;;;;;8.50;5.93;;;;;;;;;;5024581;28;20192;-84
2023/02/01 01:42:43;;;;;;;7.83;5.13;;;;;;;;;;5027858;28;20252;-84
2023/02/01 01:45:21;;;;;;;10.70;5.67;;;;;;;;;;5039156;28;20270;-84
2023/02/01 01:47:49;;;;;;;8.37;5.27;;;;;;;;;;5038413;28;20174;-86
2023/02/01 01:50:19;;;;;;;9.67;5.60;;;;;;;;;;5025320;28;20202;-83
2023/02/01 01:52:47;;;;;;;10.67;5.20;;;;;;;;;;5029148;28;20358;-83
2023/02/01 01:55:14;;;;;;;9.70;5.03;;;;;;;;;;5046285;28;20225;-83
2023/02/01 01:57:41;;;;;;;9.10;5.03;;;;;;;;;;5043290;28;20273;-83
2023/02/01 02:00:09;;;;;;;12.20;5.27;;;;;;;;;;5032113;28;20257;-83
2023/02/01 02:02:36;;;;;;;9.63;5.07;;;;;;;;;;5027272;28;20636;-84
2023/02/01 02:05:03;;;;;;;11.07;5.33;;;;;;;;;;5027935;28;20215;-83
2023/02/01 02:07:30;;;;;;;12.83;5.23;;;;;;;;;;5042410;28;20178;-83
2023/02/01 02:09:57;;;;;;;9.77;4.80;;;;;;;;;;5031573;28;20200;-84
2023/02/01 02:12:23;;;;;;;7.63;3.93;;;;;;;;;;5027293;28;20824;-84
2023/02/01 02:14:49;;;;;;;12.30;4.53;;;;;;;;;;5027400;28;20558;-83
2023/02/01 02:17:38;;;;;;;12.83;4.30;;;;;;;;;;5019721;28;20414;-83
2023/02/01 02:20:23;;;;;;;13.30;4.50;;;;;;;;;;5007190;28;20665;-84
2023/02/01 02:23:00;;;;;;;8.03;4.00;;;;;;;;;;5040652;28;20177;-85
2023/02/01 02:25:29;;;;;;;10.30;3.37;;;;;;;;;;5029160;28;20174;-83
2023/02/01 02:28:14;;;;;;;12.30;5.03;;;;;;;;;;5032399;28;20184;-86
2023/02/01 02:30:43;;;;;;;9.23;3.67;;;;;;;;;;5031663;28;20204;-84
2023/02/01 02:33:15;;;;;;;6.53;3.47;;;;;;;;;;5044982;28;20170;-84
2023/02/01 02:35:44;;;;;;;6.90;3.50;;;;;;;;;;5039394;28;20174;-84
2023/02/01 02:38:29;;;;;;;7.30;3.70;;;;;;;;;;5024744;28;20193;-85
2023/02/01 02:47:23;;;;;;;8.27;3.70;;;;;;;;;;5025064;28;20174;-84
2023/02/01 02:49:39;;;;;;;8.93;3.40;;;;;;;;;;5028969;28;20240;-85
2023/02/01 02:54:55;;;;;;;9.90;3.43;;;;;;;;;;5030636;28;20213;-88
2023/02/01 03:05:44;;;;;;;10.97;4.30;;;;;;;;;;5021780;28;20206;-84
2023/02/01 03:08:10;;;;;;;9.90;4.03;;;;;;;;;;5025824;28;20182;-84
2023/02/01 03:10:42;;;;;;;7.63;2.90;;;;;;;;;;5026510;28;20257;-85
2023/02/01 03:13:28;;;;;;;8.57;3.33;;;;;;;;;;5029348;28;20186;-84
2023/02/01 03:16:06;;;;;;;8.93;2.87;;;;;;;;;;5031056;28;20196;-85
2023/02/01 03:18:35;;;;;;;8.97;3.17;;;;;;;;;;5027290;28;20227;-82
2023/02/01 03:21:04;;;;;;;8.20;2.87;;;;;;;;;;5024077;28;20517;-84
2023/02/01 03:23:33;;;;;;;6.07;3.37;;;;;;;;;;5045131;28;20161;-86
2023/02/01 03:26:01;;;;;;;9.87;3.37;;;;;;;;;;5029350;28;20601;-83
2023/02/01 03:28:28;;;;;;;8.07;3.87;;;;;;;;;;5044130;28;20184;-84
2023/02/01 03:30:54;;;;;;;10.53;3.93;;;;;;;;;;5026939;28;20216;-84
2023/02/01 03:33:23;;;;;;;7.57;3.17;;;;;;;;;;5023899;28;20193;-83
2023/02/01 03:36:03;;;;;;;9.10;3.77;;;;;;;;;;5031323;28;20233;-83
2023/02/01 03:38:34;;;;;;;10.60;4.00;;;;;;;;;;5038003;28;20308;-81
2023/02/01 03:41:09;;;;;;;8.70;3.87;;;;;;;;;;5023523;28;20650;-84
2023/02/01 03:43:38;;;;;;;6.87;3.57;;;;;;;;;;5041268;28;20189;-86
2023/02/01 03:46:08;;;;;;;5.90;3.00;;;;;;;;;;5041614;28;20182;-85
2023/02/01 03:48:35;;;;;;;9.63;3.40;;;;;;;;;;5044287;28;20182;-86
2023/02/01 03:51:02;;;;;;;14.07;4.57;;;;;;;;;;5029741;28;20177;-84
2023/02/01 03:53:29;;;;;;;9.97;3.53;;;;;;;;;;5045602;28;20196;-83
2023/02/01 03:55:56;;;;;;;9.63;4.13;;;;;;;;;;5028014;28;20587;-83
2023/02/01 03:58:23;;;;;;;9.30;3.77;;;;;;;;;;5038017;28;20183;-85
2023/02/01 04:00:56;;;;;;;7.90;3.80;;;;;;;;;;5028266;28;20257;-84
2023/02/01 04:03:23;;;;;;;7.40;4.47;;;;;;;;;;5018148;28;20552;-83
2023/02/01 04:05:49;;;;;;;10.50;3.80;;;;;;;;;;5027317;28;20181;-83
2023/02/01 04:08:15;;;;;;;9.87;3.53;;;;;;;;;;5023934;28;20206;-85
2023/02/01 04:10:42;;;;;;;6.50;3.83;;;;;;;;;;5028147;28;20293;-84
2023/02/01 04:13:08;;;;;;;9.07;3.77;;;;;;;;;;5024949;28;20212;-83
2023/02/01 04:15:34;;;;;;;8.43;3.40;;;;;;;;;;5031753;28;20178;-84
2023/02/01 04:18:00;;;;;;;9.13;3.70;;;;;;;;;;5026809;28;20505;-82
2023/02/01 04:20:26;;;;;;;10.93;3.80;;;;;;;;;;5026359;28;20174;-84
2023/02/01 04:22:52;;;;;;;9.30;4.13;;;;;;;;;;5024840;28;20204;-83
2023/02/01 04:25:19;;;;;;;6.70;3.70;;;;;;;;;;5024548;28;20229;-85
2023/02/01 04:27:45;;;;;;;11.23;3.87;;;;;;;;;;5029851;28;20182;-84
2023/02/01 04:30:11;;;;;;;8.87;3.47;;;;;;;;;;5029816;28;20255;-83
2023/02/01 04:32:38;;;;;;;8.67;3.50;;;;;;;;;;5027805;28;20277;-86
2023/02/01 04:35:04;;;;;;;10.33;3.83;;;;;;;;;;5033416;28;20185;-83
2023/02/01 04:37:31;;;;;;;8.20;3.93;;;;;;;;;;5028647;28;20293;-84
2023/02/01 04:39:57;;;;;;;12.53;3.73;;;;;;;;;;5030995;28;20180;-83
2023/02/01 04:42:23;;;;;;;12.63;3.93;;;;;;;;;;5023316;28;20185;-83
2023/02/01 04:44:49;;;;;;;8.87;4.27;;;;;;;;;;5022881;28;20177;-84
2023/02/01 04:47:15;;;;;;;15.20;5.53;;;;;;;;;;5022617;28;20190;-84
2023/02/01 04:49:41;;;;;;;10.20;4.17;;;;;;;;;;5045539;28;20280;-85
2023/02/01 04:52:08;;;;;;;9.00;3.40;;;;;;;;;;5036927;28;20269;-84
2023/02/01 04:54:34;;;;;;;10.50;4.47;;;;;;;;;;5024624;28;20236;-84
2023/02/01 04:57:00;;;;;;;11.30;4.07;;;;;;;;;;5022987;28;20262;-85
2023/02/01 04:59:28;;;;;;;11.93;3.67;;;;;;;;;;5026605;28;20189;-84
2023/02/01 05:01:54;;;;;;;11.63;4.07;;;;;;;;;;5025862;28;20530;-83
2023/02/01 05:04:20;;;;;;;10.67;4.60;;;;;;;;;;5030023;28;20284;-83
2023/02/01 05:06:46;;;;;;;10.67;3.80;;;;;;;;;;5043844;28;20212;-84
2023/02/01 05:09:12;;;;;;;9.93;3.53;;;;;;;;;;5027758;28;20206;-83
2023/02/01 05:14:23;;;;;;;8.57;3.63;;;;;;;;;;5030119;28;20173;-85
2023/02/01 05:16:49;;;;;;;9.80;3.87;;;;;;;;;;5043434;28;20165;-83
2023/02/01 05:19:15;;;;;;;10.03;3.83;;;;;;;;;;5050653;28;20216;-84
2023/02/01 05:21:41;;;;;;;9.03;3.60;;;;;;;;;;5030699;28;20222;-83
2023/02/01 05:24:19;;;;;;;10.37;4.07;;;;;;;;;;5029921;28;20181;-84
2023/02/01 05:26:45;;;;;;;8.17;3.10;;;;;;;;;;5026811;28;20192;-83
2023/02/01 05:29:11;;;;;;;12.03;4.07;;;;;;;;;;5042513;28;20803;-84
2023/02/01 05:31:38;;;;;;;11.20;3.80;;;;;;;;;;5029079;28;20670;-83
2023/02/01 05:34:04;;;;;;;12.53;3.93;;;;;;;;;;5040415;28;20256;-83
2023/02/01 05:36:30;;;;;;;11.63;3.53;;;;;;;;;;5031723;28;20492;-84
2023/02/01 05:38:57;;;;;;;8.63;3.93;;;;;;;;;;5025324;28;20182;-84
2023/02/01 05:41:23;;;;;;;10.90;3.47;;;;;;;;;;5031327;28;20288;-85
2023/02/01 05:43:49;;;;;;;14.77;3.60;;;;;;;;;;5047638;28;20190;-84
2023/02/01 05:46:15;;;;;;;10.60;4.13;;;;;;;;;;5036271;28;20182;-83
2023/02/01 05:48:41;;;;;;;9.93;4.00;;;;;;;;;;5028010;28;20213;-86
2023/02/01 05:51:07;;;;;;;13.87;4.30;;;;;;;;;;5031764;28;20523;-84
2023/02/01 05:53:33;;;;;;;13.13;3.87;;;;;;;;;;5030882;28;20218;-83
2023/02/01 05:56:00;;;;;;;13.27;3.43;;;;;;;;;;5030638;28;20229;-86
2023/02/01 05:58:26;;;;;;;8.63;3.47;;;;;;;;;;5050044;28;20192;-85
2023/02/01 06:00:52;;;;;;;13.07;4.10;;;;;;;;;;5032941;28;20170;-85
2023/02/01 06:03:18;;;;;;;11.57;4.67;;;;;;;;;;5033713;28;20190;-84
2023/02/01 06:05:45;;;;;;;8.83;4.33;;;;;;;;;;5030619;28;20244;-87
2023/02/01 06:08:11;;;;;;;13.77;4.53;;;;;;;;;;5027483;28;20189;-86
2023/02/01 06:10:37;;;;;;;7.53;3.63;;;;;;;;;;5032229;28;20216;-85
2023/02/01 06:13:03;;;;;;;9.43;3.00;;;;;;;;;;5039360;28;20194;-84
2023/02/01 06:15:30;;;;;;;9.07;3.33;;;;;;;;;;5028346;28;20182;-84
2023/02/01 06:17:59;;;;;;;12.17;3.63;;;;;;;;;;5026821;28;20193;-83
2023/02/01 06:20:25;;;;;;;9.63;3.10;;;;;;;;;;5027208;28;20182;-82
2023/02/01 06:22:52;;;;;;;9.37;3.60;;;;;;;;;;5020031;28;20233;-82
2023/02/01 06:25:19;;;;;;;10.53;4.50;;;;;;;;;;5036686;28;20189;-85
2023/02/01 06:27:45;;;;;;;16.50;6.13;;;;;;;;;;5026043;28;21191;-83
2023/02/01 06:30:14;;;;;;;11.73;3.67;;;;;;;;;;5033272;28;20631;-86
2023/02/01 06:32:41;;;;;;;14.67;4.80;;;;;;;;;;5031709;28;20189;-84
2023/02/01 06:35:16;;;;;;;11.70;4.20;;;;;;;;;;5035503;28;20588;-84
2023/02/01 06:37:43;;;;;;;12.57;4.03;;;;;;;;;;5026638;28;20629;-82
2023/02/01 06:40:09;;;;;;;16.37;4.93;;;;;;;;;;5031478;28;20186;-83
2023/02/01 06:42:35;;;;;;;9.83;4.40;;;;;;;;;;5028851;28;20188;-84
2023/02/01 06:45:01;;;;;;;8.43;4.07;;;;;;;;;;5031081;28;20182;-83
2023/02/01 06:47:27;;;;;;;10.03;3.93;;;;;;;;;;5031765;28;20240;-84
2023/02/01 06:49:53;;;;;;;11.37;3.40;;;;;;;;;;5029722;28;20225;-84
2023/02/01 06:52:19;;;;;;;12.97;3.67;;;;;;;;;;5031483;28;20184;-85
2023/02/01 06:54:45;;;;;;;9.23;3.70;;;;;;;;;;5029302;28;20222;-84
2023/02/01 06:57:11;;;;;;;15.87;4.57;;;;;;;;;;5039092;28;20230;-85
2023/02/01 06:59:37;;;;;;;10.80;3.83;;;;;;;;;;5028833;28;20185;-82
2023/02/01 07:02:03;;;;;;;8.90;3.90;;;;;;;;;;5037555;28;20197;-83
2023/02/01 07:04:30;;;;;;;6.67;3.03;;;;;;;;;;5028717;28;20185;-84
2023/02/01 07:06:56;;;;;;;8.43;3.53;;;;;;;;;;5025003;28;20281;-86
2023/02/01 07:09:22;;;;;;;7.30;3.10;;;;;;;;;;5024661;28;20293;-85
2023/02/01 07:11:48;;;;;;;10.80;4.13;;;;;;;;;;5030949;28;20236;-84
2023/02/01 07:14:14;;;;;;;8.27;3.27;;;;;;;;;;5029300;28;20182;-83
2023/02/01 07:16:40;;;;;;;8.53;3.30;;;;;;;;;;5024078;28;20188;-83
2023/02/01 07:19:06;;;;;;;15.23;3.47;;;;;;;;;;5035937;28;20776;-82
2023/02/01 07:21:32;;;;;;;14.30;4.23;;;;;;;;;;5028732;28;20196;-84
2023/02/01 07:23:59;;;;;;;13.90;4.30;;;;;;;;;;5021390;28;20186;-83
2023/02/01 07:26:25;;;;;;;12.07;3.97;;;;;;;;;;5028344;28;20197;-83
2023/02/01 07:28:51;;;;;;;10.33;3.30;;;;;;;;;;5028624;28;20182;-82
2023/02/01 07:31:20;;;;;;;7.77;3.30;;;;;;;;;;5032917;28;20177;-83
2023/02/01 07:33:46;;;;;;;8.57;3.70;;;;;;;;;;5029408;28;20227;-84
2023/02/01 07:36:13;;;;;;;13.20;4.20;;;;;;;;;;5041345;28;20173;-83
2023/02/01 07:38:40;;;;;;;13.33;4.70;;;;;;;;;;5041980;28;20174;-83
2023/02/01 07:41:07;;;;;;;9.60;3.03;;;;;;;;;;5026400;28;20206;-82
2023/02/01 07:43:33;;;;;;;14.00;3.33;;;;;;;;;;5045835;28;20231;-82
2023/02/01 07:46:00;;;;;;;12.60;4.23;;;;;;;;;;5021972;28;20166;-83
2023/02/01 07:48:26;;;;;;;8.60;3.43;;;;;;;;;;5028871;28;20284;-83
2023/02/01 07:51:12;;;;;;;11.57;3.77;;;;;;;;;;5028184;28;20305;-83
2023/02/01 07:53:39;;;;;;;12.83;3.83;;;;;;;;;;5040173;28;20201;-82
2023/02/01 07:56:10;;;;;;;11.67;3.90;;;;;;;;;;5024089;28;20237;-82
2023/02/01 07:58:36;;;;;;;12.63;3.97;;;;;;;;;;5027245;28;20240;-83
2023/02/01 08:03:59;;;;;;;11.63;3.43;;;;;;;;;;5020274;28;20174;-82
2023/02/01 08:06:25;;;;;;;9.60;3.03;;;;;;;;;;5026369;28;20178;-83
2023/02/01 08:08:53;;;;;;;12.00;3.67;;;;;;;;;;5026312;28;20185;-82
2023/02/01 08:11:19;;;;;;;12.20;4.37;;;;;;;;;;5030364;28;20181;-85
2023/02/01 08:13:46;;;;;;;13.20;3.90;;;;;;;;;;5031693;28;20242;-86
2023/02/01 08:16:12;;;;;;;8.47;3.37;;;;;;;;;;5037890;28;20179;-87
2023/02/01 08:18:39;;;;;;;8.10;3.43;;;;;;;;;;5025019;28;20186;-82
2023/02/01 08:21:06;;;;;;;8.73;3.90;;;;;;;;;;5028078;28;20266;-82
2023/02/01 08:23:33;;;;;;;12.43;4.07;;;;;;;;;;5029151;28;20638;-83
2023/02/01 08:26:11;;;;;;;13.67;3.73;;;;;;;;;;5025791;28;20184;-82
2023/02/01 08:28:37;;;;;;;8.93;3.53;;;;;;;;;;5044444;28;20198;-84
2023/02/01 08:31:08;;;;;;;9.70;4.43;;;;;;;;;;5028952;28;20190;-83
2023/02/01 08:33:35;;;;;;;11.23;3.50;;;;;;;;;;5041290;28;20258;-84
2023/02/01 08:36:02;;;;;;;7.47;2.93;;;;;;;;;;5026506;28;20370;-83
2023/02/01 08:38:28;;;;;;;9.70;4.50;;;;;;;;;;5028406;28;20178;-83
2023/02/01 08:40:54;;;;;;;17.93;5.00;;;;;;;;;;5028319;28;20246;-83
2023/02/01 08:43:20;;;;;;;12.33;4.13;;;;;;;;;;5023372;28;20619;-85
2023/02/01 08:45:46;;;;;;;9.57;4.00;;;;;;;;;;5026242;28;20178;-84
2023/02/01 08:48:12;;;;;;;9.60;3.93;;;;;;;;;;5019980;28;20274;-84
2023/02/01 08:50:38;;;;;;;11.97;4.40;;;;;;;;;;5023253;28;20197;-83
2023/02/01 08:53:04;;;;;;;11.27;4.57;;;;;;;;;;5022354;28;20202;-84
2023/02/01 08:55:30;;;;;;;11.50;4.47;;;;;;;;;;5027902;28;20230;-86
2023/02/01 08:57:56;;;;;;;12.93;4.77;;;;;;;;;;5050517;28;20196;-85
2023/02/01 09:00:22;;;;;;;15.47;4.20;;;;;;;;;;5030485;28;20215;-82
2023/02/01 09:02:48;;;;;;;10.30;3.63;;;;;;;;;;5023321;28;20183;-82
2023/02/01 09:05:16;;;;;;;12.93;4.13;;;;;;;;;;5029164;28;20771;-82
2023/02/01 09:07:42;;;;;;;12.77;3.40;;;;;;;;;;5039958;28;20224;-84
2023/02/01 09:10:09;;;;;;;16.60;4.33;;;;;;;;;;5023784;28;20228;-87
2023/02/01 09:12:35;;;;;;;10.50;3.60;;;;;;;;;;5025993;28;20181;-82
2023/02/01 09:15:02;;;;;;;16.47;4.43;;;;;;;;;;5033950;28;20248;-84
2023/02/01 09:17:29;;;;;;;9.47;3.73;;;;;;;;;;5029518;28;20170;-82
2023/02/01 09:19:55;;;;;;;11.40;3.87;;;;;;;;;;5027789;28;20717;-85
2023/02/01 09:22:21;;;;;;;10.17;3.60;;;;;;;;;;5021681;28;20614;-85
2023/02/01 09:24:47;;;;;;;11.30;3.33;;;;;;;;;;5038026;28;20187;-82
2023/02/01 09:27:13;;;;;;;7.10;2.97;;;;;;;;;;5043249;28;20189;-82
2023/02/01 09:29:39;;;;;;;10.17;3.57;;;;;;;;;;5044840;28;20218;-83
2023/02/01 09:32:06;;;;;;;14.07;4.50;;;;;;;;;;5026049;28;20243;-84
2023/02/01 09:34:33;;;;;;;11.97;4.93;;;;;;;;;;5032321;28;20173;-84
2023/02/01 09:36:59;;;;;;;12.57;3.90;;;;;;;;;;5024173;28;20186;-81
2023/02/01 09:39:25;;;;;;;13.77;4.43;;;;;;;;;;5032245;28;20189;-82
2023/02/01 09:41:54;;;;;;;9.97;3.70;;;;;;;;;;5029767;28;20179;-82
2023/02/01 09:44:31;;;;;;;9.47;3.83;;;;;;;;;;5028910;28;21082;-83
2023/02/01 09:46:59;;;;;;;11.37;4.33;;;;;;;;;;5029432;28;20247;-81
2023/02/01 09:49:42;;;;;;;14.43;4.20;;;;;;;;;;5031265;28;20210;-84
2023/02/01 09:52:10;;;;;;;9.30;4.00;;;;;;;;;;5025675;28;20269;-82
2023/02/01 09:54:46;;;;;;;12.60;4.27;;;;;;;;;;5036682;28;20262;-83
2023/02/01 09:57:15;;;;;;;10.73;3.73;;;;;;;;;;5028374;28;20220;-83
2023/02/01 09:59:44;;;;;;;13.87;5.53;;;;;;;;;;5047040;28;20704;-83
2023/02/01 10:02:16;;;;;;;9.53;3.93;;;;;;;;;;5028655;28;20170;-87
2023/02/01 10:04:42;;;;;;;13.67;5.13;;;;;;;;;;5049163;28;20653;-86
2023/02/01 10:07:17;;;;;;;11.03;3.97;;;;;;;;;;5030626;28;20177;-85
2023/02/01 10:09:56;;;;;;;14.13;3.97;;;;;;;;;;5040548;28;20557;-84
2023/02/01 10:12:28;;;;;;;13.03;4.40;;;;;;;;;;5024424;28;20170;-85
2023/02/01 10:15:15;;;;;;;8.97;4.17;;;;;;;;;;5032020;28;20193;-84
2023/02/01 10:18:00;;;;;;;18.50;4.67;;;;;;;;;;5039909;28;20184;-84
2023/02/01 10:20:45;;;;;;;11.67;4.20;;;;;;;;;;5031296;28;20276;-86
2023/02/01 10:23:26;;;;;;;6.83;3.67;;;;;;;;;;5028493;28;20174;-85
2023/02/01 10:25:56;;;;;;;10.47;4.30;;;;;;;;;;5038794;28;20263;-85
2023/02/01 10:28:24;;;;;;;11.07;3.63;;;;;;;;;;5039015;28;20182;-86
2023/02/01 10:30:53;;;;;;;10.70;4.53;;;;;;;;;;5023730;28;20202;-84
2023/02/01 10:33:24;;;;;;;10.77;3.80;;;;;;;;;;5029434;28;20174;-84
2023/02/01 10:35:54;;;;;;;9.50;4.53;;;;;;;;;;5035175;28;20189;-84
2023/02/01 10:38:25;;;;;;;11.67;4.17;;;;;;;;;;5041267;28;20214;-84
2023/02/01 10:40:52;;;;;;;9.90;5.40;;;;;;;;;;5039866;28;20975;-84
2023/02/01 10:43:18;;;;;;;12.10;4.90;;;;;;;;;;5026444;28;20270;-86
2023/02/01 10:45:44;;;;;;;11.50;4.43;;;;;;;;;;5042506;28;20278;-85
2023/02/01 10:48:11;;;;;;;14.93;4.70;;;;;;;;;;5028996;28;20181;-84
2023/02/01 10:50:58;;;;;;;13.63;5.07;;;;;;;;;;5047459;28;20334;-84
2023/02/01 10:53:40;;;;;;;10.20;4.23;;;;;;;;;;5049087;28;20264;-86
2023/02/01 10:56:07;;;;;;;6.63;3.77;;;;;;;;;;5024481;28;20221;-84
2023/02/01 10:58:34;;;;;;;10.30;3.63;;;;;;;;;;5030243;28;20178;-84
2023/02/01 11:01:20;;;;;;;12.37;4.20;;;;;;;;;;5030765;28;20210;-87
2023/02/01 11:03:46;;;;;;;10.77;3.97;;;;;;;;;;5025999;28;20189;-85
2023/02/01 11:06:32;;;;;;;11.60;3.70;;;;;;;;;;5043490;28;20290;-87
2023/02/01 11:09:01;;;;;;;9.53;3.90;;;;;;;;;;5028653;28;20167;-84
2023/02/01 11:11:27;;;;;;;13.53;4.70;;;;;;;;;;5027760;28;20182;-84
2023/02/01 11:13:58;;;;;;;10.30;3.40;;;;;;;;;;5030272;28;20185;-86
2023/02/01 11:16:29;;;;;;;9.13;3.93;;;;;;;;;;5027868;28;20186;-85
2023/02/01 11:18:56;;;;;;;13.40;4.97;;;;;;;;;;5043411;28;20232;-86
2023/02/01 11:21:22;;;;;;;11.50;3.63;;;;;;;;;;5028270;28;20174;-84
2023/02/01 11:23:49;;;;;;;10.10;3.63;;;;;;;;;;5044027;28;20182;-84
2023/02/01 11:26:20;;;;;;;15.13;4.27;;;;;;;;;;5044274;28;20181;-84
2023/02/01 11:29:01;;;;;;;10.30;4.37;;;;;;;;;;5042928;28;20181;-84
2023/02/01 11:31:28;;;;;;;10.20;4.23;;;;;;;;;;5024257;28;20181;-85
2023/02/01 11:33:58;;;;;;;7.73;3.83;;;;;;;;;;5043463;28;20521;-84
2023/02/01 11:36:27;;;;;;;14.10;4.37;;;;;;;;;;5045418;28;20214;-86
2023/02/01 11:38:55;;;;;;;9.67;3.73;;;;;;;;;;5031634;28;20206;-87
2023/02/01 11:41:25;;;;;;;12.67;3.77;;;;;;;;;;5034337;28;20166;-84
2023/02/01 11:43:54;;;;;;;12.27;4.00;;;;;;;;;;5030718;28;20175;-85
2023/02/01 11:46:24;;;;;;;16.33;5.10;;;;;;;;;;5025806;28;20170;-84
2023/02/01 11:48:52;;;;;;;10.67;3.30;;;;;;;;;;5022033;28;20170;-85
2023/02/01 11:51:22;;;;;;;9.90;3.80;;;;;;;;;;5040870;28;20178;-83
2023/02/01 11:54:07;;;;;;;9.80;3.67;;;;;;;;;;5031155;28;20621;-87
2023/02/01 11:56:36;;;;;;;13.70;3.23;;;;;;;;;;5025778;28;20184;-83
2023/02/01 11:59:02;;;;;;;10.20;4.90;;;;;;;;;;5030004;28;20653;-83
2023/02/01 12:01:42;;;;;;;9.43;3.63;;;;;;;;;;5025237;28;20189;-83
2023/02/01 12:04:14;;;;;;;11.60;4.03;;;;;;;;;;5038060;28;20186;-82
2023/02/01 12:06:47;;;;;;;13.13;3.97;;;;;;;;;;5030263;28;20186;-82
2023/02/01 12:09:32;;;;;;;9.53;3.70;;;;;;;;;;5028167;28;20520;-86
2023/02/01 12:12:13;;;;;;;10.07;3.97;;;;;;;;;;5045179;28;20177;-83
2023/02/01 12:15:06;;;;;;;10.30;3.63;;;;;;;;;;5029519;28;20170;-83
2023/02/01 12:17:59;;;;;;;11.10;3.90;;;;;;;;;;5007204;28;20259;-85
2023/02/01 12:20:25;;;;;;;10.17;4.00;;;;;;;;;;5027507;28;20182;-86
2023/02/01 12:23:11;;;;;;;8.87;3.77;;;;;;;;;;5037649;28;20419;-88
2023/02/01 12:25:55;;;;;;;10.77;4.23;;;;;;;;;;5041067;28;20257;-84
2023/02/01 12:28:33;;;;;;;11.17;3.67;;;;;;;;;;5027125;28;20212;-84
2023/02/01 12:31:09;;;;;;;9.03;3.57;;;;;;;;;;5024369;28;20735;-83
2023/02/01 12:33:38;;;;;;;11.33;3.97;;;;;;;;;;5028675;28;20178;-84
2023/02/01 12:36:04;;;;;;;14.73;4.80;;;;;;;;;;5043091;28;20208;-84
2023/02/01 12:38:34;;;;;;;9.40;3.30;;;;;;;;;;5026877;28;20174;-82
2023/02/01 12:41:12;;;;;;;9.23;3.90;;;;;;;;;;5024849;28;20190;-83
2023/02/01 12:43:54;;;;;;;7.90;3.80;;;;;;;;;;5020854;28;20181;-84
2023/02/01 12:46:36;;;;;;;7.67;3.23;;;;;;;;;;5026303;28;20190;-85
2023/02/01 12:49:02;;;;;;;11.33;3.70;;;;;;;;;;5028743;28;20174;-83
2023/02/01 12:51:38;;;;;;;7.77;2.97;;;;;;;;;;5032151;28;20241;-85
2023/02/01 12:54:05;;;;;;;9.47;2.90;;;;;;;;;;5028567;28;20352;-83
2023/02/01 12:56:35;;;;;;;9.53;4.03;;;;;;;;;;5035812;28;20852;-86
2023/02/01 12:59:03;;;;;;;11.70;3.40;;;;;;;;;;5021286;28;20198;-83
2023/02/01 13:01:35;;;;;;;12.10;3.20;;;;;;;;;;5042173;28;20186;-83
2023/02/01 13:04:11;;;;;;;7.73;3.00;;;;;;;;;;5041985;28;20250;-82
2023/02/01 13:06:43;;;;;;;11.17;3.80;;;;;;;;;;5027234;28;20358;-83
2023/02/01 13:09:22;;;;;;;12.07;3.13;;;;;;;;;;5036988;28;20214;-84
2023/02/01 13:11:50;;;;;;;8.30;3.40;;;;;;;;;;5030944;28;20209;-83
2023/02/01 13:14:26;;;;;;;10.53;3.57;;;;;;;;;;5042429;28;20554;-84
2023/02/01 13:16:54;;;;;;;10.97;3.20;;;;;;;;;;5040002;28;20693;-84
2023/02/01 13:19:25;;;;;;;9.00;3.37;;;;;;;;;;5038452;28;20187;-86
2023/02/01 13:21:56;;;;;;;8.53;3.40;;;;;;;;;;5025970;28;20295;-83
2023/02/01 13:24:32;;;;;;;7.37;2.90;;;;;;;;;;5029444;28;20174;-83
2023/02/01 13:26:58;;;;;;;8.80;2.90;;;;;;;;;;5032434;28;20195;-82
2023/02/01 13:29:24;;;;;;;10.40;3.30;;;;;;;;;;5031321;28;20266;-82
2023/02/01 13:31:57;;;;;;;5.07;2.30;;;;;;;;;;5029494;28;20179;-84
2023/02/01 13:34:44;;;;;;;8.23;3.70;;;;;;;;;;5031031;28;20184;-82
2023/02/01 13:37:29;;;;;;;8.57;2.60;;;;;;;;;;5048480;28;20182;-85
2023/02/01 13:40:08;;;;;;;10.50;2.93;;;;;;;;;;5045393;28;20174;-86
2023/02/01 13:42:36;;;;;;;4.63;2.27;;;;;;;;;;5034181;28;20726;-82
2023/02/01 13:45:04;;;;;;;8.43;2.40;;;;;;;;;;5040988;28;20183;-86
2023/02/01 13:47:36;;;;;;;7.83;2.70;;;;;;;;;;5033269;28;20185;-83
2023/02/01 13:50:12;;;;;;;7.87;3.23;;;;;;;;;;5030521;28;20851;-83
2023/02/01 13:52:43;;;;;;;7.23;2.53;;;;;;;;;;5024900;28;20178;-83
2023/02/01 13:55:22;;;;;;;8.63;2.83;;;;;;;;;;5045917;28;20210;-83
2023/02/01 13:57:49;;;;;;;7.83;3.20;;;;;;;;;;5031067;28;20179;-82
2023/02/01 14:00:32;;;;;;;8.63;2.60;;;;;;;;;;5042359;28;20217;-81
2023/02/01 14:03:01;;;;;;;10.80;3.37;;;;;;;;;;5045764;28;20201;-82
2023/02/01 14:05:27;;;;;;;5.50;2.17;;;;;;;;;;5046007;28;20742;-80
2023/02/01 14:08:06;;;;;;;6.83;2.67;;;;;;;;;;5031420;28;20190;-79
2023/02/01 14:10:51;;;;;;;5.60;3.23;;;;;;;;;;5034950;28;20202;-81
2023/02/01 14:13:24;;;;;;;16.40;4.13;;;;;;;;;;5047806;28;20268;-82
2023/02/01 14:16:02;;;;;;;14.40;2.93;;;;;;;;;;5027672;28;20178;-80
2023/02/01 14:18:37;;;;;;;5.00;2.17;;;;;;;;;;5028075;28;20174;-83
2023/02/01 14:21:16;;;;;;;11.43;2.77;;;;;;;;;;5029673;28;20192;-85
2023/02/01 14:23:54;;;;;;;6.83;2.90;;;;;;;;;;5028775;28;20187;-84
2023/02/01 14:26:28;;;;;;;11.63;3.13;;;;;;;;;;5041059;28;21000;-84
2023/02/01 14:29:00;;;;;;;15.07;2.97;;;;;;;;;;5028710;28;20197;-86
2023/02/01 14:31:32;;;;;;;8.43;2.43;;;;;;;;;;5028335;28;21736;-86
2023/02/01 14:33:59;;;;;;;7.63;2.33;;;;;;;;;;5029073;28;20695;-86
2023/02/01 14:36:26;;;;;;;8.90;3.40;;;;;;;;;;5046236;28;20178;-85
2023/02/01 14:38:52;;;;;;;8.20;2.73;;;;;;;;;;5027115;28;20182;-86
2023/02/01 14:41:26;;;;;;;16.20;3.50;;;;;;;;;;5047819;28;20185;-82
2023/02/01 14:43:59;;;;;;;8.87;2.50;;;;;;;;;;5029553;28;20165;-83
2023/02/01 14:46:43;;;;;;;11.37;2.77;;;;;;;;;;5021357;28;20177;-84
2023/02/01 14:49:10;;;;;;;11.37;3.30;;;;;;;;;;5031076;28;20265;-84
2023/02/01 14:51:37;;;;;;;7.83;2.93;;;;;;;;;;5027902;28;20255;-85
2023/02/01 14:54:03;;;;;;;12.47;3.10;;;;;;;;;;5031189;28;20297;-84
2023/02/01 14:56:29;;;;;;;7.87;2.50;;;;;;;;;;5043021;28;20179;-82
2023/02/01 14:59:04;;;;;;;6.23;2.53;;;;;;;;;;5030749;28;20605;-85
2023/02/01 15:01:34;;;;;;;9.13;2.37;;;;;;;;;;5045653;28;20174;-84
2023/02/01 15:04:21;;;;;;;8.30;2.80;;;;;;;;;;5029335;28;20184;-84
2023/02/01 15:06:52;;;;;;;11.13;2.90;;;;;;;;;;5038296;28;20679;-84
2023/02/01 15:09:24;;;;;;;7.70;2.97;;;;;;;;;;5033437;28;20198;-87
2023/02/01 15:11:54;;;;;;;5.70;2.30;;;;;;;;;;5034900;28;20173;-85
2023/02/01 15:14:20;;;;;;;8.20;2.60;;;;;;;;;;5029470;28;20632;-84